Current Conditions
Mostly Scattered
Clouds



Pressure
1014.9 (mb) - 29.97 (inHG)
Visibility

9.7 (km) - 6.0 (miles)
   Temperature
14  °C
57°F
8  °C
Dewpoint
67  %
 Humidity
   Wind Speed
0.9  m/s
2  mph
3  km/h
2  kts
   Wind Direction
Calm
Due North
   Airport Data
EETN
Location Lennart Meri Tallinn Airport 25 km (15.54 mi)
Metar :EETN 131820Z VRB02KT 9999 SCT045 14/08 Q1015 NOSIG
Thu 13th June 21:20 pm
   Raw Metar Info
Raw METAR is the most common format in the world for the transmission of observational weather data. It is highly standardized through the International Civil Aviation Organization (ICAO), which allows it to be understood throughout most of the world.
   API Info
Data Provided by
https://www.checkwx.com/weather/EETN
   © Info
CSS/SVG/PHP scripts were developed by weather34.com for use in the weather34 template © 2015-2024

Guide Info provided by Metar-Wikipedia